createdAt,value
2019-01-23T00:04:01.289Z,96.52
2019-01-23T00:10:40.245Z,97.32
2019-01-23T00:20:11.111Z,98.20
2019-01-23T00:26:36.931Z,98.55
2019-01-23T00:33:02.523Z,98.80
2019-01-23T00:39:28.372Z,99.15
2019-01-23T00:45:55.625Z,99.75
2019-01-23T00:52:22.121Z,100.00
2019-01-23T00:58:49.279Z,99.78
2019-01-23T01:05:16.902Z,100.00
2019-01-23T01:11:43.379Z,100.00
2019-01-23T01:18:11.572Z,100.00
2019-01-23T01:24:37.389Z,100.00
2019-01-23T01:31:13.197Z,100.00
2019-01-23T01:37:37.814Z,100.00
2019-01-23T01:44:05.969Z,100.00
2019-01-23T01:49:57.440Z,100.00
2019-01-23T01:56:23.269Z,100.00
2019-01-23T02:02:49.090Z,100.00
2019-01-23T02:09:14.900Z,100.00
2019-01-23T02:15:41.371Z,100.00
2019-01-23T02:21:56.437Z,100.00
2019-01-23T02:28:26.928Z,100.00
2019-01-23T02:34:53.132Z,100.00
2019-01-23T02:41:18.952Z,100.00
2019-01-23T02:47:46.791Z,100.00
2019-01-23T02:54:19.338Z,100.00
2019-01-23T03:00:45.501Z,100.00
2019-01-23T03:07:11.322Z,100.00
2019-01-23T03:13:37.007Z,100.00
2019-01-23T03:23:46.805Z,100.00
2019-01-23T03:30:35.992Z,100.00
2019-01-23T03:37:14.950Z,100.00
2019-01-23T03:43:55.952Z,100.00
2019-01-23T03:49:58.742Z,100.00
2019-01-23T03:56:35.675Z,100.00
2019-01-23T04:03:16.639Z,100.00
2019-01-23T04:09:55.590Z,100.00
2019-01-23T04:16:32.520Z,100.00
2019-01-23T04:26:35.497Z,100.00
2019-01-23T04:33:01.034Z,100.00
2019-01-23T04:39:29.752Z,100.00
2019-01-23T04:45:54.977Z,100.00
2019-01-23T04:52:40.701Z,100.00
2019-01-23T04:59:06.823Z,100.00
2019-01-23T05:05:30.620Z,100.00
2019-01-23T05:11:56.197Z,100.00
2019-01-23T05:18:26.151Z,100.00
2019-01-23T05:28:40.382Z,100.00
2019-01-23T05:35:19.331Z,100.00
2019-01-23T05:41:50.690Z,100.00
2019-01-23T05:48:27.637Z,100.00
2019-01-23T05:54:54.680Z,100.00
2019-01-23T06:01:24.620Z,100.00
2019-01-23T06:07:51.290Z,100.00
2019-01-23T06:14:16.476Z,100.00
2019-01-23T06:20:41.282Z,100.00
2019-01-23T06:30:43.882Z,100.00
2019-01-23T06:37:23.215Z,100.00
2019-01-23T06:44:03.848Z,100.00
2019-01-23T06:50:05.752Z,100.00
2019-01-23T06:56:47.359Z,100.00
2019-01-23T07:03:33.755Z,99.86
2019-01-23T07:10:14.695Z,100.00
2019-01-23T07:16:52.423Z,100.00
2019-01-23T07:23:18.484Z,100.00
2019-01-23T07:33:25.523Z,99.72
2019-01-23T07:39:52.327Z,100.00
2019-01-23T07:46:19.878Z,99.86
2019-01-23T07:52:45.984Z,100.00
2019-01-23T07:59:11.818Z,100.00
2019-01-23T08:05:41.111Z,100.00
2019-01-23T08:12:10.662Z,99.92
2019-01-23T08:18:36.331Z,99.69
2019-01-23T08:25:15.282Z,99.44
2019-01-23T08:34:41.530Z,99.75
2019-01-23T08:41:09.435Z,99.44
2019-01-23T08:47:46.683Z,99.21
2019-01-23T08:54:21.572Z,99.05
2019-01-23T09:00:49.414Z,98.61
2019-01-23T09:07:17.249Z,98.60
2019-01-23T09:13:48.123Z,98.72
2019-01-23T09:20:15.968Z,98.53
2019-01-23T09:26:43.801Z,98.08
2019-01-23T09:37:54.087Z,97.50
2019-01-23T09:45:11.543Z,97.96
2019-01-23T09:52:23.680Z,98.01
2019-01-23T09:59:02.882Z,98.44
2019-01-23T10:05:28.818Z,98.99
2019-01-23T10:11:54.641Z,98.20
2019-01-23T10:18:25.106Z,97.51
2019-01-23T10:24:50.949Z,96.77
2019-01-23T10:31:18.029Z,96.61
2019-01-23T10:37:41.830Z,96.52
2019-01-23T10:44:06.780Z,95.97
2019-01-23T10:49:55.026Z,96.77
2019-01-23T10:56:21.696Z,96.90
2019-01-23T11:02:53.688Z,96.67
2019-01-23T11:09:19.805Z,97.00
2019-01-23T11:15:46.211Z,97.33
2019-01-23T11:22:12.404Z,97.96
2019-01-23T11:28:38.232Z,98.78
2019-01-23T11:38:40.851Z,98.30
2019-01-23T11:45:08.601Z,97.25
2019-01-23T11:51:34.858Z,96.71
2019-01-23T11:58:02.503Z,96.35
2019-01-23T12:04:29.167Z,97.50
2019-01-23T12:10:55.349Z,97.88
2019-01-23T12:17:21.173Z,97.01
2019-01-23T12:23:46.989Z,96.49
2019-01-23T12:30:26.493Z,96.45
2019-01-23T12:40:28.915Z,96.01
2019-01-23T12:47:05.843Z,95.28
2019-01-23T12:53:45.715Z,94.88
2019-01-23T13:00:27.778Z,95.03
2019-01-23T13:07:06.736Z,95.38
2019-01-23T13:13:43.402Z,95.21
2019-01-23T13:20:28.172Z,95.03
2019-01-23T13:26:58.617Z,93.14
2019-01-23T13:33:23.342Z,93.15
2019-01-23T13:43:14.960Z,93.34
2019-01-23T13:49:55.962Z,94.04
2019-01-23T13:56:32.867Z,93.60
2019-01-23T14:03:12.057Z,93.05
2019-01-23T14:09:54.470Z,92.75
2019-01-23T14:16:37.021Z,91.86
2019-01-23T14:23:15.986Z,91.58
2019-01-23T14:29:54.920Z,90.78
2019-01-23T14:36:24.563Z,91.28
2019-01-23T14:46:17.264Z,91.26
2019-01-23T14:52:56.223Z,91.46
2019-01-23T14:59:35.190Z,92.10
2019-01-23T15:06:14.505Z,91.71
2019-01-23T15:12:53.095Z,91.72
2019-01-23T15:19:16.897Z,90.58
2019-01-23T15:25:56.200Z,91.20
2019-01-23T15:32:37.169Z,90.02
2019-01-23T15:39:16.119Z,90.71
2019-01-23T15:48:46.773Z,90.60
2019-01-23T15:55:14.622Z,90.69
2019-01-23T16:01:54.485Z,90.64
2019-01-23T16:08:21.401Z,90.38
2019-01-23T16:14:49.913Z,90.40
2019-01-23T16:21:17.087Z,90.28
2019-01-23T16:27:41.890Z,89.95
2019-01-23T16:34:07.939Z,90.14
2019-01-23T16:40:33.534Z,90.58
2019-01-23T16:50:25.366Z,89.48
2019-01-23T16:56:56.281Z,90.17
2019-01-23T17:03:39.246Z,90.15
2019-01-23T17:10:33.360Z,89.80
2019-01-23T17:17:08.171Z,90.39
2019-01-23T17:22:59.452Z,90.10
2019-01-23T17:29:30.736Z,90.59
2019-01-23T17:36:07.484Z,90.95
2019-01-23T17:42:40.283Z,90.71
2019-01-23T17:52:54.533Z,90.65
2019-01-23T17:59:23.004Z,90.94
2019-01-23T18:06:02.321Z,90.50
2019-01-23T18:12:30.151Z,90.89
2019-01-23T18:19:13.747Z,91.60
2019-01-23T18:25:30.884Z,91.50
2019-01-23T18:32:21.820Z,91.73
2019-01-23T18:39:01.910Z,91.14
2019-01-23T18:46:17.050Z,91.14
2019-01-23T18:53:00.875Z,91.14
2019-01-23T18:59:40.171Z,90.86
2019-01-23T19:06:10.601Z,91.16
2019-01-23T19:12:35.638Z,91.26
2019-01-23T19:19:06.395Z,91.56
2019-01-23T19:25:34.562Z,91.69
2019-01-23T19:32:02.202Z,92.11
2019-01-23T19:38:28.867Z,91.30
2019-01-23T19:44:57.073Z,91.37
2019-01-23T19:51:22.891Z,91.21
2019-01-23T19:57:59.826Z,91.20
2019-01-23T20:04:27.659Z,91.46
2019-01-23T20:10:53.488Z,90.59
2019-01-23T20:16:56.068Z,90.44
2019-01-23T20:23:41.695Z,91.10
2019-01-23T20:29:23.313Z,90.18
2019-01-23T20:35:55.434Z,90.31
2019-01-23T20:42:35.072Z,89.49
2019-01-23T20:49:00.924Z,89.02
2019-01-23T20:55:30.990Z,89.30
2019-01-23T21:01:55.799Z,89.34
2019-01-23T21:08:36.773Z,88.25
2019-01-23T21:15:04.392Z,88.04
2019-01-23T21:21:31.438Z,88.13
2019-01-23T21:31:33.186Z,88.21
2019-01-23T21:38:12.141Z,87.65
2019-01-23T21:44:39.186Z,88.09
2019-01-23T21:51:04.998Z,88.10
2019-01-23T21:57:31.739Z,88.40
2019-01-23T22:04:15.831Z,88.70
2019-01-23T22:10:48.723Z,88.55
2019-01-23T22:17:16.561Z,88.22
2019-01-23T22:23:58.538Z,88.70
2019-01-23T22:34:13.449Z,88.88
2019-01-23T22:40:33.904Z,88.47
2019-01-23T22:47:09.175Z,88.11
2019-01-23T22:53:47.247Z,87.49
2019-01-23T23:00:23.822Z,88.56
2019-01-23T23:06:50.894Z,89.07
2019-01-23T23:13:29.849Z,88.42
2019-01-23T23:20:00.615Z,88.82
2019-01-23T23:26:27.656Z,89.35
2019-01-23T23:36:29.409Z,88.41
2019-01-23T23:42:25.140Z,88.41
2019-01-23T23:49:05.097Z,88.60
2019-01-23T23:55:36.738Z,88.67
